• Join FlightAware (Why Join?)
  • Login
  • US Flag 
09:39AM EDT


 

Airport Tracker/Info


-or-


 

Live Flight TrackerFlight Track Log ✈ N662US ✈ 18-Jun-2013 ✈ RJAA / NRT - KATL

Flight Track Log - Related Links

Times and Time Zones

All times are in EDT time to prevent confusion due to time zone crossing. See the N662US flight status page for this flight to view local times or setup timezone preferences in your user account.

Time Position Orientation Groundspeed Altitude Reporting Facility
EDT Latitude Longitude Course Direction KTS MPH feet Rate Location/Type
03:14AM 35.6990 140.4230 149° Southeast 203 234 2,300  Level FlightAware
03:15AM 35.6790 140.4370 150° Southeast 204 235 2,900 1,380 Climbing FlightAware
03:15AM 35.6540 140.4550 150° Southeast 206 237 3,600 1,080 Climbing FlightAware
03:16AM 35.6350 140.4690 149° Southeast 209 241 3,900 600 Climbing FlightAware
03:16AM 35.6130 140.4850 149° Southeast 229 264 4,100 660 Climbing FlightAware
03:17AM 35.5860 140.5040 150° Southeast 247 284 4,500 1,020 Climbing FlightAware
03:17AM 35.5560 140.5460 131° Southeast 273 314 5,200 1,320 Climbing FlightAware
03:17AM 35.5540 140.5640 98° East 290 334 5,500 1,680 Climbing FlightAware
03:18AM 35.5480 140.6120 99° East 308 354 6,300 1,920 Climbing FlightAware
03:18AM 35.5420 140.6670 98° East 315 362 7,400 1,980 Climbing FlightAware
03:19AM 35.5360 140.7200 98° East 327 376 8,300 1,800 Climbing FlightAware
03:19AM 35.5320 140.7610 97° East 337 388 8,900 1,740 Climbing FlightAware
03:20AM 35.5250 140.8210 98° East 349 402 9,800 1,500 Climbing FlightAware
03:21AM 35.5140 140.9120 98° East 371 427 10,900 1,140 Climbing FlightAware
03:21AM 35.4990 141.0340 99° East 421 484 11,700 840 Climbing FlightAware
03:22AM 35.4820 141.1300 102° East 445 512 12,300 1,200 Climbing FlightAware
03:23AM 35.4480 141.2430 110° East 466 536 13,500 1,620 Climbing FlightAware
03:23AM 35.4170 141.3430 111° Southeast 476 548 14,600 1,560 Climbing FlightAware
03:24AM 35.3840 141.4510 111° Southeast 487 560 15,700 1,380 Climbing FlightAware
03:25AM 35.3510 141.5600 110° East 501 577 16,600 600 Climbing FlightAware
03:26AM 35.3190 141.6660 110° East 501 577 16,600  Level FlightAware
03:26AM 35.2930 141.7520 110° East 501 577 16,600  Level FlightAware
03:27AM 35.2690 141.8340 110° East 501 577 16,600  Level FlightAware
03:28AM 35.2260 141.9790 110° East 501 577 16,600 3,600 Level FlightAware
03:28AM 35.3160 142.1130 51° Northeast 536 617 21,100 5,880 Climbing FlightAware
03:29AM 35.3490 142.2390 72° East 542 624 22,000 600 Climbing FlightAware
03:30AM 35.3740 142.3330 72° East 542 624 22,000 720 Level FlightAware
03:30AM 35.4060 142.4610 73° East 546 628 23,000 600 Climbing FlightAware
03:31AM 35.4360 142.5820 73° East 546 628 23,000  Level FlightAware
03:32AM 35.4590 142.6730 73° East 546 628 23,000 1,380 Level FlightAware
03:33AM 35.5430 142.9900 72° East 570 656 25,900 1,500 Climbing FlightAware
03:34AM 35.5970 143.2060 73° East 570 656 27,000 540 Climbing FlightAware
03:35AM 35.6220 143.3060 73° East 570 656 27,000  Level FlightAware
03:36AM 35.6480 143.4110 73° East 570 656 27,000  Level FlightAware
03:37AM 35.6880 143.5720 73° East 570 656 27,000  Level FlightAware
03:37AM 35.7130 143.6700 73° East 570 656 27,000  Level FlightAware
03:40AM 35.9674 143.9218 39° Northeast  Level Estimated
03:41AM 36.0804 144.0343 39° Northeast  Level Estimated
03:42AM 36.1932 144.1471 39° Northeast  Level Estimated
03:43AM 36.3059 144.2602 39° Northeast  Level Estimated
03:44AM 36.4185 144.3736 39° Northeast  Level Estimated
03:45AM 36.5310 144.4874 39° Northeast  Level Estimated
03:46AM 36.6434 144.6015 39° Northeast  Level Estimated
03:47AM 36.7556 144.7159 39° Northeast  Level Estimated
03:48AM 36.8678 144.8306 39° Northeast  Level Estimated
03:49AM 36.9799 144.9457 39° Northeast  Level Estimated
03:50AM 37.0918 145.0612 39° Northeast  Level Estimated
03:51AM 37.2037 145.1770 39° Northeast  Level Estimated
03:52AM 37.3154 145.2931 40° Northeast  Level Estimated
03:53AM 37.4270 145.4095 40° Northeast  Level Estimated
03:54AM 37.5385 145.5264 40° Northeast  Level Estimated
03:55AM 37.6498 145.6435 40° Northeast  Level Estimated
03:56AM 37.7611 145.7610 40° Northeast  Level Estimated
03:57AM 37.8722 145.8789 40° Northeast  Level Estimated
03:58AM 37.9856 145.9996 40° Northeast  Level Estimated
03:59AM 38.0988 146.1207 40° Northeast  Level Estimated
04:00AM 38.2119 146.2422 40° Northeast  Level Estimated
04:01AM 38.3249 146.3640 40° Northeast  Level Estimated
04:02AM 38.4377 146.4862 40° Northeast  Level Estimated
04:03AM 38.5505 146.6088 40° Northeast  Level Estimated
04:04AM 38.6631 146.7318 40° Northeast  Level Estimated
04:05AM 38.7755 146.8551 41° Northeast  Level Estimated
04:06AM 38.8878 146.9789 41° Northeast  Level Estimated
04:07AM 39.0000 147.1030 41° Northeast  Level Estimated
04:08AM 39.1121 147.2276 41° Northeast  Level Estimated
04:09AM 39.2240 147.3525 41° Northeast  Level Estimated
04:10AM 39.3358 147.4779 41° Northeast  Level Estimated
04:11AM 39.4475 147.6036 41° Northeast  Level Estimated
04:12AM 39.5591 147.7298 41° Northeast  Level Estimated
04:13AM 39.6704 147.8563 41° Northeast  Level Estimated
04:14AM 39.7817 147.9833 41° Northeast  Level Estimated
04:15AM 39.8928 148.1106 41° Northeast  Level Estimated
04:16AM 40.0038 148.2384 41° Northeast  Level Estimated
04:17AM 40.1147 148.3666 41° Northeast  Level Estimated
04:18AM 40.2253 148.4952 42° Northeast  Level Estimated
04:19AM 40.3359 148.6243 42° Northeast  Level Estimated
04:20AM 40.4463 148.7537 42° Northeast  Level Estimated
04:21AM 40.5566 148.8836 42° Northeast  Level Estimated
04:22AM 40.6667 149.0139 42° Northeast  Level Estimated
04:23AM 40.7767 149.1447 42° Northeast  Level Estimated
04:24AM 40.8865 149.2758 42° Northeast  Level Estimated
04:25AM 40.9962 149.4075 42° Northeast  Level Estimated
04:26AM 41.1057 149.5395 42° Northeast  Level Estimated
04:27AM 41.2151 149.6720 42° Northeast  Level Estimated
04:28AM 41.3243 149.8049 42° Northeast  Level Estimated
04:29AM 41.4334 149.9383 42° Northeast  Level Estimated
04:30AM 41.5423 150.0721 43° Northeast  Level Estimated
04:31AM 41.6510 150.2064 43° Northeast  Level Estimated
04:32AM 41.7596 150.3412 43° Northeast  Level Estimated
04:33AM 41.8681 150.4764 43° Northeast  Level Estimated
04:34AM 41.9892 150.6281 43° Northeast  Level Estimated
04:35AM 42.1101 150.7805 43° Northeast  Level Estimated
04:36AM 42.2309 150.9335 43° Northeast  Level Estimated
04:37AM 42.3514 151.0870 43° Northeast  Level Estimated
04:38AM 42.4717 151.2411 43° Northeast  Level Estimated
04:39AM 42.5918 151.3959 43° Northeast  Level Estimated
04:40AM 42.7117 151.5512 44° Northeast  Level Estimated
04:41AM 42.8314 151.7071 44° Northeast  Level Estimated
04:42AM 42.9509 151.8636 44° Northeast  Level Estimated
04:43AM 43.0702 152.0208 44° Northeast  Level Estimated
04:44AM 43.1892 152.1785 44° Northeast  Level Estimated
04:45AM 43.3080 152.3369 44° Northeast  Level Estimated
04:46AM 43.4267 152.4958 44° Northeast  Level Estimated
04:47AM 43.5450 152.6554 44° Northeast  Level Estimated
04:48AM 43.6632 152.8157 44° Northeast  Level Estimated
04:49AM 43.7812 152.9765 45° Northeast  Level Estimated
04:50AM 43.8989 153.1380 45° Northeast  Level Estimated
04:51AM 44.0164 153.3002 45° Northeast  Level Estimated
04:52AM 44.1336 153.4629 45° Northeast  Level Estimated
04:53AM 44.2507 153.6264 45° Northeast  Level Estimated
04:54AM 44.3675 153.7905 45° Northeast  Level Estimated
04:55AM 44.4840 153.9552 45° Northeast  Level Estimated
04:56AM 44.6003 154.1206 45° Northeast  Level Estimated
04:57AM 44.7164 154.2866 45° Northeast  Level Estimated
04:58AM 44.8322 154.4533 46° Northeast  Level Estimated
04:59AM 44.9478 154.6207 46° Northeast  Level Estimated
05:00AM 45.0632 154.7888 46° Northeast  Level Estimated
05:01AM 45.1783 154.9576 46° Northeast  Level Estimated
05:02AM 45.2932 155.1270 46° Northeast  Level Estimated
05:03AM 45.4077 155.2971 46° Northeast  Level Estimated
05:04AM 45.5221 155.4679 46° Northeast  Level Estimated
05:05AM 45.6362 155.6394 46° Northeast  Level Estimated
05:06AM 45.7500 155.8116 47° Northeast  Level Estimated
05:07AM 45.8636 155.9845 47° Northeast  Level Estimated
05:08AM 45.9769 156.1581 47° Northeast  Level Estimated
05:09AM 46.0900 156.3324 47° Northeast  Level Estimated
05:10AM 46.2027 156.5075 47° Northeast  Level Estimated
05:11AM 46.3153 156.6832 47° Northeast  Level Estimated
05:12AM 46.4162 156.8418 47° Northeast  Level Estimated
05:13AM 46.5169 157.0010 47° Northeast  Level Estimated
05:14AM 46.6173 157.1608 47° Northeast  Level Estimated
05:15AM 46.7176 157.3212 48° Northeast  Level Estimated
05:16AM 46.8176 157.4821 48° Northeast  Level Estimated
05:17AM 46.9174 157.6437 48° Northeast  Level Estimated
05:18AM 47.0169 157.8059 48° Northeast  Level Estimated
05:19AM 47.1163 157.9686 48° Northeast  Level Estimated
05:20AM 47.2154 158.1320 48° Northeast  Level Estimated
05:21AM 47.3142 158.2960 48° Northeast  Level Estimated
05:22AM 47.4129 158.4606 48° Northeast  Level Estimated
05:23AM 47.5113 158.6259 49° Northeast  Level Estimated
05:24AM 47.6094 158.7917 49° Northeast  Level Estimated
05:25AM 47.7073 158.9582 49° Northeast  Level Estimated
05:26AM 47.8050 159.1252 49° Northeast  Level Estimated
05:27AM 47.9025 159.2930 49° Northeast  Level Estimated
05:28AM 47.9996 159.4613 49° Northeast  Level Estimated
05:29AM 48.0966 159.6303 49° Northeast  Level Estimated
05:30AM 48.1933 159.7999 49° Northeast  Level Estimated
05:31AM 48.2897 159.9702 50° Northeast  Level Estimated
05:32AM 48.3859 160.1411 50° Northeast  Level Estimated
05:33AM 48.4818 160.3127 50° Northeast  Level Estimated
05:34AM 48.5775 160.4849 50° Northeast  Level Estimated
05:35AM 48.6729 160.6577 50° Northeast  Level Estimated
05:36AM 48.7681 160.8313 50° Northeast  Level Estimated
05:37AM 48.8630 161.0054 50° Northeast  Level Estimated
05:38AM 48.9576 161.1803 50° Northeast  Level Estimated
05:39AM 49.0520 161.3558 51° Northeast  Level Estimated
05:40AM 49.1461 161.5319 51° Northeast  Level Estimated
05:41AM 49.2400 161.7088 51° Northeast  Level Estimated
05:42AM 49.3335 161.8862 51° Northeast  Level Estimated
05:43AM 49.4268 162.0644 51° Northeast  Level Estimated
05:44AM 49.5198 162.2433 51° Northeast  Level Estimated
05:45AM 49.6126 162.4228 51° Northeast  Level Estimated
05:46AM 49.7050 162.6030 52° Northeast  Level Estimated
05:47AM 49.7972 162.7840 52° Northeast  Level Estimated
05:48AM 49.8891 162.9656 52° Northeast  Level Estimated
05:48AM 43.6333 167.7167 77° East 553 636 31,000  Level Oakland Oceanic (ODAPS)
05:49AM 49.9807 163.1478 52° Northeast  Level Estimated
05:50AM 50.0721 163.3308 52° Northeast  Level Estimated
05:51AM 50.1631 163.5145 52° Northeast  Level Estimated
05:52AM 50.2538 163.6989 52° Northeast  Level Estimated
05:53AM 50.3443 163.8840 53° Northeast  Level Estimated
05:54AM 50.4345 164.0698 53° Northeast  Level Estimated
05:55AM 43.8390 168.9586 78° East 553 636 31,000  Level FlightAware Transoceanic
05:56AM 43.8719 169.1665 78° East 553 636 31,000  Level FlightAware Transoceanic
05:57AM 43.9045 169.3745 78° East 553 636 31,000  Level FlightAware Transoceanic
05:58AM 43.9367 169.5828 78° East 553 636 31,000  Level FlightAware Transoceanic
05:59AM 43.9686 169.7913 78° East 553 636 31,000  Level FlightAware Transoceanic
06:00AM 44.0000 170.0000 79° East 553 636 31,000  Level FlightAware Transoceanic
06:01AM 44.0309 170.2133 79° East 553 636 31,000 540 Level FlightAware Transoceanic
06:01AM 44.0000 170.0000 79° East 556 640 32,000  Climbing Oakland Oceanic (ODAPS)
06:02AM 44.0614 170.4268 79° East 553 636 31,000 -840 Descending FlightAware Transoceanic
06:03AM 44.0916 170.6405 79° East 553 636 31,000 480 Level FlightAware Transoceanic
06:03AM 44.0667 170.4667 79° East 556 640 32,000  Climbing Oakland Oceanic (ODAPS)
06:04AM 44.1213 170.8544 79° East 553 636 31,000 -900 Descending FlightAware Transoceanic
06:05AM 44.1506 171.0686 79° East 553 636 31,000  Level FlightAware Transoceanic
06:06AM 44.1795 171.2830 79° East 553 636 31,000  Level FlightAware Transoceanic
06:07AM 44.2080 171.4975 80° East 553 636 31,000 480 Level FlightAware Transoceanic
06:08AM 44.2362 171.7123 80° East 556 640 32,000 480 Climbing FlightAware Transoceanic
06:09AM 44.2639 171.9273 80° East 556 640 32,000  Level FlightAware Transoceanic
06:10AM 44.2950 172.1754 80° East 556 640 32,000  Level FlightAware Transoceanic
06:11AM 44.3217 172.3899 80° East 556 640 32,000  Level FlightAware Transoceanic
06:12AM 44.3481 172.6046 80° East 556 640 32,000  Level FlightAware Transoceanic
06:13AM 44.3740 172.8194 80° East 556 640 32,000  Level FlightAware Transoceanic
06:14AM 44.3995 173.0345 81° East 556 640 32,000  Level FlightAware Transoceanic
06:15AM 44.4247 173.2498 81° East 556 640 32,000  Level FlightAware Transoceanic
06:15AM 44.4333 173.3500 81° East 556 640 32,000  Level Oakland Oceanic (ODAPS)
06:16AM 44.4494 173.4652 81° East 556 640 32,000  Level FlightAware Transoceanic
06:17AM 44.4737 173.6808 81° East 556 640 32,000  Level FlightAware Transoceanic
06:18AM 44.4976 173.8966 81° East 556 640 32,000  Level FlightAware Transoceanic
06:19AM 44.5211 174.1126 81° East 556 640 32,000  Level FlightAware Transoceanic
06:20AM 44.5443 174.3288 82° East 556 640 32,000  Level FlightAware Transoceanic
06:21AM 44.5730 174.6263 82° East 556 640 32,000  Level FlightAware Transoceanic
06:22AM 44.5949 174.8396 82° East 556 640 32,000  Level FlightAware Transoceanic
06:23AM 44.6164 175.0530 82° East 556 640 32,000  Level FlightAware Transoceanic
06:24AM 44.6375 175.2666 82° East 556 640 32,000  Level FlightAware Transoceanic
06:25AM 44.6582 175.4804 82° East 556 640 32,000  Level FlightAware Transoceanic
06:26AM 44.6785 175.6943 82° East 556 640 32,000  Level FlightAware Transoceanic
06:27AM 44.6984 175.9084 83° East 556 640 32,000  Level FlightAware Transoceanic
06:28AM 44.7179 176.1226 83° East 556 640 32,000  Level FlightAware Transoceanic
06:29AM 44.7370 176.3369 83° East 556 640 32,000  Level FlightAware Transoceanic
06:30AM 44.7557 176.5514 83° East 556 640 32,000  Level FlightAware Transoceanic
06:31AM 44.7740 176.7660 83° East 556 640 32,000  Level FlightAware Transoceanic
06:32AM 44.7919 176.9808 83° East 556 640 32,000  Level FlightAware Transoceanic
06:33AM 44.8094 177.1957 84° East 556 640 32,000  Level FlightAware Transoceanic
06:34AM 44.8265 177.4107 84° East 556 640 32,000  Level FlightAware Transoceanic
06:35AM 44.8432 177.6259 84° East 556 640 32,000  Level FlightAware Transoceanic
06:36AM 44.8595 177.8411 84° East 556 640 32,000  Level FlightAware Transoceanic
06:37AM 44.8754 178.0565 84° East 556 640 32,000  Level FlightAware Transoceanic
06:38AM 44.8908 178.2720 84° East 556 640 32,000  Level FlightAware Transoceanic
06:39AM 44.9059 178.4877 84° East 556 640 32,000  Level FlightAware Transoceanic
06:40AM 44.9206 178.7034 85° East 556 640 32,000  Level FlightAware Transoceanic
06:41AM 44.9348 178.9193 85° East 556 640 32,000  Level FlightAware Transoceanic
06:42AM 44.9487 179.1352 85° East 556 640 32,000  Level FlightAware Transoceanic
06:42AM 44.9500 179.1167 85° East 543 625 32,000  Level Oakland Oceanic (ODAPS)
06:43AM 44.9621 179.3513 85° East 556 640 32,000  Level FlightAware Transoceanic
06:44AM 44.9752 179.5674 85° East 556 640 32,000  Level FlightAware Transoceanic
06:45AM 44.9878 179.7837 85° East 556 640 32,000  Level FlightAware Transoceanic
06:46AM 45.0000 -180.0000 86° East 556 640 32,000  Level FlightAware Transoceanic
06:46AM 45.0000 -180.0000 86° East 549 632 32,000  Level Oakland Oceanic (ODAPS)
06:47AM 45.0093 -179.7831 87° East 556 640 32,000  Level FlightAware Transoceanic
06:48AM 45.0182 -179.5662 87° East 543 625 32,000  Level FlightAware Transoceanic
06:49AM 45.0266 -179.3492 87° East 543 625 32,000  Level FlightAware Transoceanic
06:50AM 45.0347 -179.1321 87° East 543 625 32,000  Level FlightAware Transoceanic
06:51AM 45.0423 -178.9150 87° East 543 625 32,000  Level FlightAware Transoceanic
06:52AM 45.0486 -178.7255 87° East 549 632 32,000  Level FlightAware Transoceanic
06:53AM 45.0553 -178.5129 88° East 549 632 32,000  Level FlightAware Transoceanic
06:54AM 45.0617 -178.3002 88° East 549 632 32,000  Level FlightAware Transoceanic
06:55AM 45.0676 -178.0875 88° East 549 632 32,000  Level FlightAware Transoceanic
06:56AM 45.0732 -177.8748 88° East 549 632 32,000  Level FlightAware Transoceanic
06:57AM 45.0783 -177.6620 88° East 549 632 32,000  Level FlightAware Transoceanic
06:58AM 45.0830 -177.4492 88° East 549 632 32,000  Level FlightAware Transoceanic
06:59AM 45.0874 -177.2363 88° East 549 632 32,000  Level FlightAware Transoceanic
07:00AM 45.0914 -177.0234 89° East 549 632 32,000  Level FlightAware Transoceanic
07:01AM 45.0949 -176.8105 89° East 549 632 32,000  Level FlightAware Transoceanic
07:02AM 45.0981 -176.5976 89° East 549 632 32,000  Level FlightAware Transoceanic
07:03AM 45.1009 -176.3846 89° East 549 632 32,000  Level FlightAware Transoceanic
07:04AM 45.1032 -176.1716 89° East 549 632 32,000  Level FlightAware Transoceanic
07:05AM 45.1052 -175.9586 89° East 549 632 32,000  Level FlightAware Transoceanic
07:06AM 45.1068 -175.7456 89° East 549 632 32,000  Level FlightAware Transoceanic
07:07AM 45.1080 -175.5326 90° East 549 632 32,000  Level FlightAware Transoceanic
07:08AM 45.1088 -175.3195 90° East 549 632 32,000  Level FlightAware Transoceanic
07:08AM 45.1167 -175.2000 90° East 550 633 32,000  Level Oakland Oceanic (ODAPS)
07:09AM 45.1092 -175.1065 90° East 549 632 32,000  Level FlightAware Transoceanic
07:10AM 45.1092 -174.8935 90° East 549 632 32,000  Level FlightAware Transoceanic
07:11AM 45.1088 -174.6805 90° East 549 632 32,000  Level FlightAware Transoceanic
07:12AM 45.1080 -174.4674 90° East 549 632 32,000  Level FlightAware Transoceanic
07:13AM 45.1068 -174.2544 91° East 549 632 32,000  Level FlightAware Transoceanic
07:14AM 45.1052 -174.0414 91° East 549 632 32,000  Level FlightAware Transoceanic
07:15AM 45.1096 -173.8983 91° East 550 633 32,000  Level FlightAware Transoceanic
07:16AM 45.1070 -173.6815 91° East 550 633 32,000  Level FlightAware Transoceanic
07:17AM 45.1040 -173.4646 91° East 550 633 32,000  Level FlightAware Transoceanic
07:18AM 45.1006 -173.2477 91° East 550 633 32,000  Level FlightAware Transoceanic
07:19AM 45.0967 -173.0309 92° East 550 633 32,000  Level FlightAware Transoceanic
07:20AM 45.0925 -172.8141 92° East 550 633 32,000  Level FlightAware Transoceanic
07:21AM 45.0878 -172.5974 92° East 550 633 32,000  Level FlightAware Transoceanic
07:22AM 45.0828 -172.3806 92° East 550 633 32,000  Level FlightAware Transoceanic
07:23AM 45.0773 -172.1639 92° East 550 633 32,000  Level FlightAware Transoceanic
07:24AM 45.0714 -171.9473 92° East 550 633 32,000  Level FlightAware Transoceanic
07:25AM 45.0651 -171.7307 92° East 550 633 32,000  Level FlightAware Transoceanic
07:26AM 45.0584 -171.5142 93° East 550 633 32,000  Level FlightAware Transoceanic
07:27AM 45.0513 -171.2977 93° East 550 633 32,000  Level FlightAware Transoceanic
07:28AM 45.0438 -171.0812 93° East 550 633 32,000  Level FlightAware Transoceanic
07:29AM 45.0358 -170.8649 93° East 550 633 32,000  Level FlightAware Transoceanic
07:30AM 45.0275 -170.6485 93° East 550 633 32,000  Level FlightAware Transoceanic
07:31AM 45.0187 -170.4323 93° East 550 633 32,000  Level FlightAware Transoceanic
07:32AM 45.0096 -170.2161 94° East 550 633 32,000  Level FlightAware Transoceanic
07:33AM 45.0000 -170.0000 94° East 550 633 32,000 960 Level FlightAware Transoceanic
07:33AM 45.0000 -170.0000 94° East 561 646 33,000  Climbing Oakland Oceanic (ODAPS)
07:34AM 44.9874 -169.7745 95° East 550 633 32,000 -540 Descending FlightAware Transoceanic
07:35AM 44.9743 -169.5492 95° East 550 633 32,000 660 Level FlightAware Transoceanic
07:35AM 44.9667 -169.4500 95° East 562 647 33,000  Climbing Oakland Oceanic (ODAPS)
07:36AM 44.9608 -169.3239 95° East 550 633 32,000 -660 Descending FlightAware Transoceanic
07:37AM 44.9468 -169.0988 95° East 550 633 32,000  Level FlightAware Transoceanic
07:38AM 44.9324 -168.8737 95° East 550 633 32,000 480 Level FlightAware Transoceanic
07:39AM 44.9195 -168.6781 95° East 561 646 33,000 480 Climbing FlightAware Transoceanic
07:40AM 44.9046 -168.4582 96° East 561 646 33,000  Level FlightAware Transoceanic
07:41AM 44.8811 -168.1446 96° East 562 647 33,000  Level FlightAware Transoceanic
07:42AM 44.8654 -167.9274 96° East 562 647 33,000  Level FlightAware Transoceanic
07:43AM 44.8493 -167.7103 96° East 562 647 33,000  Level FlightAware Transoceanic
07:44AM 44.8328 -167.4934 96° East 562 647 33,000  Level FlightAware Transoceanic
07:45AM 44.8159 -167.2766 96° East 562 647 33,000  Level FlightAware Transoceanic
07:46AM 44.7985 -167.0599 97° East 562 647 33,000  Level FlightAware Transoceanic
07:47AM 44.7808 -166.8434 97° East 562 647 33,000  Level FlightAware Transoceanic
07:48AM 44.7626 -166.6270 97° East 562 647 33,000  Level FlightAware Transoceanic
07:49AM 44.7440 -166.4107 97° East 562 647 33,000  Level FlightAware Transoceanic
07:50AM 44.7251 -166.1945 97° East 562 647 33,000  Level FlightAware Transoceanic
07:51AM 44.7057 -165.9785 97° East 562 647 33,000  Level FlightAware Transoceanic
07:52AM 44.6859 -165.7627 97° East 562 647 33,000  Level FlightAware Transoceanic
07:53AM 44.6657 -165.5470 98° East 562 647 33,000  Level FlightAware Transoceanic
07:54AM 44.6451 -165.3315 98° East 562 647 33,000  Level FlightAware Transoceanic
07:55AM 44.6241 -165.1161 98° East 562 647 33,000  Level FlightAware Transoceanic
07:56AM 44.6027 -164.9008 98° East 562 647 33,000  Level FlightAware Transoceanic
07:57AM 44.5808 -164.6858 98° East 562 647 33,000  Level FlightAware Transoceanic
07:58AM 44.5586 -164.4709 98° East 562 647 33,000  Level FlightAware Transoceanic
07:59AM 44.5360 -164.2561 98° East 562 647 33,000  Level FlightAware Transoceanic
08:00AM 44.5130 -164.0415 99° East 562 647 33,000  Level FlightAware Transoceanic
08:01AM 44.4895 -163.8271 99° East 562 647 33,000  Level FlightAware Transoceanic
08:02AM 44.4657 -163.6129 99° East 562 647 33,000  Level FlightAware Transoceanic
08:02AM 44.4667 -163.6667 99° East 568 654 33,000  Level Oakland Oceanic (ODAPS)
08:03AM 44.4415 -163.3988 99° East 562 647 33,000  Level FlightAware Transoceanic
08:04AM 44.4169 -163.1850 99° East 562 647 33,000  Level FlightAware Transoceanic
08:05AM 44.3918 -162.9713 99° East 562 647 33,000  Level FlightAware Transoceanic
08:06AM 44.3664 -162.7578 100° East 562 647 33,000  Level FlightAware Transoceanic
08:07AM 44.3406 -162.5444 100° East 562 647 33,000  Level FlightAware Transoceanic
08:08AM 44.3154 -162.3660 100° East 568 654 33,000  Level FlightAware Transoceanic
08:09AM 44.2887 -162.1499 100° East 568 654 33,000  Level FlightAware Transoceanic
08:10AM 44.2617 -161.9339 100° East 568 654 33,000  Level FlightAware Transoceanic
08:11AM 44.2342 -161.7182 100° East 568 654 33,000  Level FlightAware Transoceanic
08:12AM 44.2063 -161.5027 100° East 568 654 33,000  Level FlightAware Transoceanic
08:13AM 44.1781 -161.2874 100° East 568 654 33,000  Level FlightAware Transoceanic
08:14AM 44.1494 -161.0723 101° East 568 654 33,000  Level FlightAware Transoceanic
08:15AM 44.1203 -160.8574 101° East 568 654 33,000  Level FlightAware Transoceanic
08:16AM 44.0909 -160.6427 101° East 568 654 33,000  Level FlightAware Transoceanic
08:17AM 44.0610 -160.4283 101° East 568 654 33,000  Level FlightAware Transoceanic
08:18AM 44.0307 -160.2140 101° East 568 654 33,000  Level FlightAware Transoceanic
08:18AM 44.0000 -160.0000 87° East 568 654 33,000  Level Oakland Oceanic (ODAPS)
08:19AM 44.0000 -160.0000 87° East 568 654 33,000  Level FlightAware Transoceanic
08:20AM 44.0095 -159.7783 87° East 568 654 33,000  Level FlightAware Transoceanic
08:21AM 44.0185 -159.5565 87° East 568 654 33,000  Level FlightAware Transoceanic
08:22AM 44.0271 -159.3347 87° East 568 654 33,000  Level FlightAware Transoceanic
08:23AM 44.0353 -159.1127 87° East 568 654 33,000  Level FlightAware Transoceanic
08:24AM 44.0431 -158.8908 87° East 568 654 33,000  Level FlightAware Transoceanic
08:25AM 44.0504 -158.6687 87° East 568 654 33,000  Level FlightAware Transoceanic
08:26AM 44.0573 -158.4467 88° East 568 654 33,000  Level FlightAware Transoceanic
08:27AM 44.0638 -158.2245 88° East 568 654 33,000  Level FlightAware Transoceanic
08:28AM 44.0698 -158.0024 88° East 568 654 33,000  Level FlightAware Transoceanic
08:28AM 44.0667 -157.8167 88° East 557 641 33,000  Level Oakland Oceanic (ODAPS)
08:29AM 44.0754 -157.7801 88° East 568 654 33,000  Level FlightAware Transoceanic
08:30AM 44.0806 -157.5579 88° East 568 654 33,000  Level FlightAware Transoceanic
08:31AM 44.0854 -157.3356 88° East 568 654 33,000  Level FlightAware Transoceanic
08:32AM 44.0897 -157.1132 89° East 568 654 33,000  Level FlightAware Transoceanic
08:33AM 44.0936 -156.8909 89° East 568 654 33,000  Level FlightAware Transoceanic
08:34AM 44.0970 -156.6685 89° East 568 654 33,000  Level FlightAware Transoceanic
08:35AM 44.0926 -156.5137 89° East 557 641 33,000  Level FlightAware Transoceanic
08:36AM 44.0955 -156.2965 89° East 557 641 33,000  Level FlightAware Transoceanic
08:37AM 44.0979 -156.0792 89° East 557 641 33,000  Level FlightAware Transoceanic
08:38AM 44.1000 -155.8620 89° East 557 641 33,000  Level FlightAware Transoceanic
08:39AM 44.1017 -155.6447 89° East 557 641 33,000  Level FlightAware Transoceanic
08:40AM 44.1029 -155.4273 90° East 557 641 33,000  Level FlightAware Transoceanic
08:41AM 44.1037 -155.2100 90° East 557 641 33,000  Level FlightAware Transoceanic
08:42AM 44.1041 -154.9927 90° East 557 641 33,000  Level FlightAware Transoceanic
08:43AM 44.1041 -154.7754 90° East 557 641 33,000  Level FlightAware Transoceanic
08:44AM 44.1037 -154.5581 90° East 557 641 33,000  Level FlightAware Transoceanic
08:45AM 44.1029 -154.3407 90° East 557 641 33,000  Level FlightAware Transoceanic
08:46AM 44.1017 -154.1234 91° East 557 641 33,000  Level FlightAware Transoceanic
08:47AM 44.1000 -153.9061 91° East 557 641 33,000  Level FlightAware Transoceanic
08:48AM 44.0979 -153.6888 91° East 557 641 33,000  Level FlightAware Transoceanic
08:49AM 44.0955 -153.4716 91° East 557 641 33,000  Level FlightAware Transoceanic
08:50AM 44.0926 -153.2543 91° East 557 641 33,000  Level FlightAware Transoceanic
08:51AM 44.0893 -153.0371 91° East 557 641 33,000  Level FlightAware Transoceanic
08:52AM 44.0856 -152.8199 91° East 557 641 33,000  Level FlightAware Transoceanic
08:53AM 44.0815 -152.6027 92° East 557 641 33,000  Level FlightAware Transoceanic
08:54AM 44.0769 -152.3856 92° East 557 641 33,000  Level FlightAware Transoceanic
08:55AM 44.0720 -152.1685 92° East 557 641 33,000 660 Level FlightAware Transoceanic
08:55AM 44.0667 -152.0500 92° East 553 636 34,000  Climbing Oakland Oceanic (ODAPS)
08:56AM 44.0666 -151.9514 92° East 557 641 33,000 -660 Descending FlightAware Transoceanic
08:57AM 44.0609 -151.7344 92° East 557 641 33,000  Level FlightAware Transoceanic
08:58AM 44.0547 -151.5174 92° East 557 641 33,000  Level FlightAware Transoceanic
08:59AM 44.0481 -151.3005 92° East 557 641 33,000  Level FlightAware Transoceanic
09:00AM 44.0411 -151.0836 93° East 557 641 33,000 480 Level FlightAware Transoceanic
09:01AM 44.0311 -150.8194 93° East 553 636 34,000 480 Climbing FlightAware Transoceanic
09:02AM 44.0238 -150.6145 93° East 553 636 34,000  Level FlightAware Transoceanic
09:03AM 44.0163 -150.4096 93° East 553 636 34,000  Level FlightAware Transoceanic
09:04AM 44.0083 -150.2048 93° East 553 636 34,000  Level FlightAware Transoceanic
09:05AM 44.0000 -150.0000 102° East 553 636 34,000  Level FlightAware Transoceanic
09:05AM 44.0000 -150.0000 102° East 557 641 34,000  Level Oakland Oceanic (ODAPS)
09:06AM 43.9667 -149.7808 102° East 553 636 34,000  Level FlightAware Transoceanic
09:07AM 43.9330 -149.5618 102° East 553 636 34,000  Level FlightAware Transoceanic
09:08AM 43.8989 -149.3431 102° East 553 636 34,000  Level FlightAware Transoceanic
09:09AM 43.8643 -149.1247 102° East 553 636 34,000  Level FlightAware Transoceanic
09:10AM 43.8294 -148.9064 103° East 553 636 34,000  Level FlightAware Transoceanic
09:11AM 43.8027 -148.7419 103° East 557 641 34,000  Level FlightAware Transoceanic
09:12AM 43.7685 -148.5330 103° East 557 641 34,000  Level FlightAware Transoceanic
09:13AM 43.7339 -148.3244 103° East 557 641 34,000  Level FlightAware Transoceanic
09:14AM 43.6989 -148.1160 103° East 557 641 34,000  Level FlightAware Transoceanic
09:15AM 43.6635 -147.9078 103° East 557 641 34,000  Level FlightAware Transoceanic
09:16AM 43.6278 -147.6999 103° East 557 641 34,000  Level FlightAware Transoceanic
09:17AM 43.5917 -147.4923 104° East 557 641 34,000  Level FlightAware Transoceanic
09:18AM 43.5552 -147.2849 104° East 557 641 34,000  Level FlightAware Transoceanic
09:19AM 43.5183 -147.0777 104° East 557 641 34,000  Level FlightAware Transoceanic
09:20AM 43.4811 -146.8708 104° East 557 641 34,000  Level FlightAware Transoceanic
09:21AM 43.4435 -146.6642 104° East 557 641 34,000  Level FlightAware Transoceanic
09:22AM 43.4055 -146.4578 104° East 557 641 34,000  Level FlightAware Transoceanic
09:22AM 43.4167 -146.5167 104° East 559 643 34,000  Level Oakland Oceanic (ODAPS)
09:23AM 43.3672 -146.2517 104° East 557 641 34,000  Level FlightAware Transoceanic
09:24AM 43.3285 -146.0459 105° East 557 641 34,000  Level FlightAware Transoceanic
09:25AM 43.2894 -145.8403 105° East 557 641 34,000  Level FlightAware Transoceanic
09:26AM 43.2499 -145.6349 105° East 557 641 34,000  Level FlightAware Transoceanic
09:27AM 43.2101 -145.4299 105° East 557 641 34,000  Level FlightAware Transoceanic
09:28AM 43.1795 -145.2725 105° East 559 643 34,000  Level FlightAware Transoceanic
09:29AM 43.1386 -145.0661 105° East 559 643 34,000  Level FlightAware Transoceanic
09:30AM 43.0974 -144.8600 105° East 559 643 34,000  Level FlightAware Transoceanic
09:31AM 43.0558 -144.6541 106° East 559 643 34,000  Level FlightAware Transoceanic
09:32AM 43.0139 -144.4486 106° East 559 643 34,000  Level FlightAware Transoceanic
09:33AM 42.9716 -144.2433 106° East 559 643 34,000  Level FlightAware Transoceanic
09:34AM 42.9289 -144.0383 106° East 559 643 34,000  Level FlightAware Transoceanic
09:35AM 42.8858 -143.8335 106° East 559 643 34,000  Level FlightAware Transoceanic
09:36AM 42.8424 -143.6291 106° East 559 643 34,000  Level FlightAware Transoceanic
09:37AM 42.7987 -143.4250 106° East 559 643 34,000  Level FlightAware Transoceanic
09:38AM 42.7545 -143.2211 107° East 559 643 34,000  Level FlightAware Transoceanic
09:39AM 42.7100 -143.0175 107° East 559 643 34,000  Level FlightAware Transoceanic
09:40AM 42.6652 -142.8143 107° East 559 643 34,000  Level FlightAware Transoceanic
09:41AM 42.6200 -142.6113 107° East 559 643 34,000  Level FlightAware Transoceanic
09:42AM 42.5744 -142.4086 107° East 559 643 34,000  Level FlightAware Transoceanic
09:43AM 42.5285 -142.2062 107° East 559 643 34,000  Level FlightAware Transoceanic
09:44AM 42.4822 -142.0042 107° East 559 643 34,000  Level FlightAware Transoceanic
09:45AM 42.4355 -141.8024 107° East 559 643 34,000  Level FlightAware Transoceanic
09:46AM 42.3885 -141.6009 108° East 559 643 34,000  Level FlightAware Transoceanic
09:47AM 42.3412 -141.3997 108° East 559 643 34,000  Level FlightAware Transoceanic
09:48AM 42.2935 -141.1988 108° East 559 643 34,000  Level FlightAware Transoceanic
09:48AM 42.2667 -141.1000 108° East 573 659 34,000  Level Oakland Oceanic (ODAPS)
09:49AM 42.2454 -140.9982 108° East 559 643 34,000  Level FlightAware Transoceanic
09:50AM 42.1970 -140.7980 108° East 559 643 34,000  Level FlightAware Transoceanic
09:51AM 42.1483 -140.5980 108° East 559 643 34,000  Level FlightAware Transoceanic
09:52AM 42.0992 -140.3984 108° East 559 643 34,000  Level FlightAware Transoceanic
09:53AM 42.0498 -140.1990 109° East 559 643 34,000  Level FlightAware Transoceanic
09:54AM 42.0000 -140.0000 108° East 559 643 34,000  Level FlightAware Transoceanic
09:54AM 42.0000 -140.0000 108° East 578 665 34,000  Level Oakland Oceanic (ODAPS)
09:55AM 41.9487 -139.7914 108° East 573 659 34,000  Level FlightAware Transoceanic
09:56AM 41.8971 -139.5831 109° East 573 659 34,000  Level FlightAware Transoceanic
09:57AM 41.8450 -139.3751 109° East 573 659 34,000  Level FlightAware Transoceanic
09:58AM 41.7926 -139.1675 109° East 573 659 34,000  Level FlightAware Transoceanic
09:59AM 41.7398 -138.9602 109° East 573 659 34,000  Level FlightAware Transoceanic
10:00AM 41.6930 -138.7776 109° East 578 665 34,000  Level FlightAware Transoceanic
10:01AM 41.6405 -138.5750 109° East 578 665 34,000  Level FlightAware Transoceanic
10:02AM 41.5877 -138.3728 109° East 578 665 34,000  Level FlightAware Transoceanic
10:03AM 41.5346 -138.1709 109° East 578 665 34,000  Level FlightAware Transoceanic
10:04AM 41.4811 -137.9693 110° East 578 665 34,000  Level FlightAware Transoceanic
10:05AM 41.4273 -137.7680 110° East 578 665 34,000  Level FlightAware Transoceanic
10:06AM 41.3731 -137.5671 110° East 578 665 34,000  Level FlightAware Transoceanic
10:07AM 41.3185 -137.3665 110° East 578 665 34,000  Level FlightAware Transoceanic
10:08AM 41.2636 -137.1663 110° East 578 665 34,000  Level FlightAware Transoceanic
10:09AM 41.2084 -136.9664 110° East 578 665 34,000  Level FlightAware Transoceanic
10:10AM 41.1528 -136.7668 110° East 578 665 34,000  Level FlightAware Transoceanic
10:11AM 41.0969 -136.5676 111° Southeast 578 665 34,000  Level FlightAware Transoceanic
10:12AM 41.0406 -136.3687 111° Southeast 578 665 34,000  Level FlightAware Transoceanic
10:13AM 40.9840 -136.1701 111° Southeast 578 665 34,000  Level FlightAware Transoceanic
10:14AM 40.9271 -135.9719 111° Southeast 578 665 34,000  Level FlightAware Transoceanic
10:15AM 40.8698 -135.7740 111° Southeast 578 665 34,000 660 Level FlightAware Transoceanic
10:15AM 40.8333 -135.6500 111° Southeast 590 679 35,000  Climbing Oakland Oceanic (ODAPS)
10:16AM 40.8122 -135.5765 111° Southeast 578 665 34,000 -660 Descending FlightAware Transoceanic
10:17AM 40.7542 -135.3793 111° Southeast 578 665 34,000  Level FlightAware Transoceanic
10:18AM 40.6959 -135.1825 111° Southeast 578 665 34,000  Level FlightAware Transoceanic
10:19AM 40.6373 -134.9860 112° Southeast 578 665 34,000  Level FlightAware Transoceanic
10:20AM 40.5783 -134.7899 112° Southeast 578 665 34,000 480 Level FlightAware Transoceanic
10:21AM 40.4768 -134.4563 112° Southeast 590 679 35,000 480 Climbing FlightAware Transoceanic
10:22AM 40.4162 -134.2586 112° Southeast 590 679 35,000  Level FlightAware Transoceanic
10:23AM 40.3552 -134.0612 112° Southeast 590 679 35,000  Level FlightAware Transoceanic
10:24AM 40.2939 -133.8642 112° Southeast 590 679 35,000  Level FlightAware Transoceanic
10:25AM 40.2323 -133.6676 112° Southeast 590 679 35,000  Level FlightAware Transoceanic
10:26AM 40.1704 -133.4713 113° Southeast 590 679 35,000  Level FlightAware Transoceanic
10:27AM 40.1081 -133.2754 113° Southeast 590 679 35,000  Level FlightAware Transoceanic
10:28AM 40.0455 -133.0798 113° Southeast 590 679 35,000  Level FlightAware Transoceanic
10:29AM 39.9826 -132.8846 113° Southeast 590 679 35,000  Level FlightAware Transoceanic
10:30AM 39.9193 -132.6898 113° Southeast 590 679 35,000  Level FlightAware Transoceanic
10:31AM 39.8557 -132.4953 113° Southeast 590 679 35,000  Level FlightAware Transoceanic
10:32AM 39.7918 -132.3012 113° Southeast 590 679 35,000  Level FlightAware Transoceanic
10:33AM 39.7275 -132.1074 113° Southeast 590 679 35,000  Level FlightAware Transoceanic
10:34AM 39.6630 -131.9140 114° Southeast 590 679 35,000  Level FlightAware Transoceanic
10:35AM 39.5981 -131.7210 114° Southeast 590 679 35,000  Level FlightAware Transoceanic
10:36AM 39.5329 -131.5283 114° Southeast 590 679 35,000  Level FlightAware Transoceanic
10:37AM 39.4674 -131.3360 114° Southeast 590 679 35,000  Level FlightAware Transoceanic
10:38AM 39.4016 -131.1441 114° Southeast 590 679 35,000  Level FlightAware Transoceanic
10:39AM 39.3354 -130.9525 114° Southeast 590 679 35,000  Level FlightAware Transoceanic
10:40AM 39.2690 -130.7612 114° Southeast 590 679 35,000  Level FlightAware Transoceanic
10:41AM 39.2022 -130.5704 114° Southeast 590 679 35,000  Level FlightAware Transoceanic
10:42AM 39.1351 -130.3799 114° Southeast 590 679 35,000  Level FlightAware Transoceanic
10:42AM 39.1667 -130.4667 115° Southeast 579 666 35,000  Level Oakland Oceanic (ODAPS)
10:43AM 39.0677 -130.1898 115° Southeast 590 679 35,000  Level FlightAware Transoceanic
10:44AM 39.0000 -130.0000 102° East 590 679 35,000  Level FlightAware Transoceanic
10:44AM 39.0000 -130.0000 102° East 571 657 35,000  Level Oakland Oceanic (ODAPS)
10:45AM 38.9668 -129.7986 102° East 590 679 35,000  Level FlightAware Transoceanic
10:46AM 38.9333 -129.5974 102° East 590 679 35,000  Level FlightAware Transoceanic
10:47AM 38.8995 -129.3965 102° East 590 679 35,000  Level FlightAware Transoceanic
10:48AM 38.8653 -129.1957 102° East 579 666 35,000  Level FlightAware Transoceanic
10:49AM 38.8308 -128.9951 103° East 579 666 35,000  Level FlightAware Transoceanic
10:50AM 38.8090 -128.8698 103° East 571 657 35,000  Level FlightAware Transoceanic
10:51AM 38.7761 -128.6820 103° East 571 657 35,000  Level FlightAware Transoceanic
10:52AM 38.7429 -128.4944 103° East 571 657 35,000  Level FlightAware Transoceanic
10:53AM 38.7094 -128.3070 103° East 571 657 35,000  Level FlightAware Transoceanic
10:54AM 38.6756 -128.1197 103° East 571 657 35,000  Level FlightAware Transoceanic
10:55AM 38.6415 -127.9326 103° East 571 657 35,000  Level FlightAware Transoceanic
10:56AM 38.6072 -127.7458 103° East 571 657 35,000  Level FlightAware Transoceanic
10:57AM 38.5725 -127.5591 103° East 571 657 35,000  Level FlightAware Transoceanic
10:57AM 38.5611 -127.4831 96° East 569 655 35,000  Level Oakland Center
10:58AM 38.5375 -127.3725 104° East 571 657 35,000  Level FlightAware Transoceanic
10:58AM 38.5233 -127.2875 104° East 568 654 35,000  Level Oakland Center
10:59AM 38.5022 -127.1862 104° East 571 657 35,000  Level FlightAware Transoceanic
10:59AM 38.4789 -127.0553 104° East 568 654 35,000  Level Oakland Center
11:00AM 38.4667 -127.0000 95° East 571 657 35,000  Level FlightAware Transoceanic
11:00AM 38.4592 -126.8567 97° East 571 657 35,000  Level Oakland Center
11:01AM 38.4510 -126.7924 96° East 571 657 35,000  Level FlightAware Transoceanic
11:01AM 38.4639 -126.6531 88° East 577 664 35,000  Level Oakland Center
11:02AM 38.4349 -126.5848 96° East 571 657 35,000  Level FlightAware Transoceanic
11:02AM 38.4739 -126.4533 86° East 574 661 35,000  Level Oakland Center
11:07AM 38.5180 -125.3690 86° East 568 654 35,000  Level FlightAware
11:08AM 38.5240 -125.2310 87° East 566 651 35,000  Level FlightAware
11:09AM 38.5280 -125.1050 88° East 563 648 35,000  Level FlightAware
11:09AM 38.5340 -124.9530 87° East 560 644 35,000  Level FlightAware
11:10AM 38.5400 -124.7690 88° East 558 642 35,000  Level FlightAware
11:11AM 38.5440 -124.6370 88° East 558 642 35,000  Level FlightAware
11:12AM 38.5500 -124.4470 88° East 555 639 35,000  Level FlightAware
11:13AM 38.5550 -124.3000 87° East 552 635 35,000  Level FlightAware
11:13AM 38.5590 -124.1600 88° East 550 633 35,000  Level FlightAware
11:14AM 38.5620 -124.0240 88° East 550 633 35,000  Level FlightAware
11:15AM 38.5660 -123.8880 88° East 551 634 35,000  Level FlightAware
11:15AM 38.5690 -123.7640 88° East 553 636 35,000  Level FlightAware
11:16AM 38.5730 -123.6200 88° East 554 638 35,000  Level FlightAware
11:17AM 38.5760 -123.4770 88° East 554 638 35,000  Level FlightAware
11:18AM 38.5790 -123.3330 88° East 555 639 35,000  Level FlightAware
11:18AM 38.5820 -123.2020 88° East 554 638 35,000  Level FlightAware
11:19AM 38.5840 -123.0710 89° East 554 638 35,000  Level FlightAware
11:20AM 38.5870 -122.9440 88° East 555 639 35,000  Level FlightAware
11:21AM 38.5890 -122.7700 89° East 554 638 35,000  Level FlightAware
11:21AM 38.5920 -122.6000 89° East 555 639 35,000  Level FlightAware
11:22AM 38.5940 -122.4660 89° East 555 639 35,000  Level FlightAware
11:23AM 38.5950 -122.3250 89° East 555 639 35,000  Level FlightAware
11:23AM 38.5970 -122.1940 89° East 555 639 35,000  Level FlightAware
11:24AM 38.5980 -122.0530 89° East 554 638 35,000  Level FlightAware
11:25AM 38.5990 -121.9190 89° East 553 636 35,000  Level FlightAware
11:26AM 38.6010 -121.6890 89° East 550 633 35,000  Level FlightAware
11:27AM 38.6020 -121.5490 89° East 549 632 35,000  Level FlightAware
11:27AM 38.6020 -121.4230 90° East 549 632 35,000  Level FlightAware
11:28AM 38.6030 -121.2770 89° East 548 631 35,000  Level FlightAware
11:29AM 38.6030 -121.1450 90° East 548 631 35,000  Level FlightAware
11:30AM 38.6030 -120.9930 90° East 548 631 35,000  Level FlightAware
11:30AM 38.6030 -120.8310 90° East 549 632 35,000  Level FlightAware
11:31AM 38.6020 -120.6980 91° East 549 632 35,000  Level FlightAware
11:32AM 38.6020 -120.5330 90° East 549 632 35,000  Level FlightAware
11:33AM 38.6080 -120.3320 88° East 553 636 35,000  Level FlightAware
11:34AM 38.6270 -120.1940 80° East 552 635 35,000  Level FlightAware
11:34AM 38.6450 -120.0550 81° East 552 635 35,000  Level FlightAware
11:35AM 38.6580 -119.9260 83° East 548 631 35,000  Level FlightAware
11:36AM 38.6590 -119.7970 89° East 543 625 35,000  Level FlightAware
11:36AM 38.6540 -119.6910 93° East 542 624 35,000  Level FlightAware
11:37AM 38.6500 -119.5860 93° East 541 623 35,000  Level FlightAware
11:38AM 38.6440 -119.4390 93° East 539 620 35,000  Level FlightAware
11:38AM 38.6370 -119.2930 93° East 542 624 35,000  Level FlightAware
11:39AM 38.6310 -119.1650 93° East 543 625 35,000  Level FlightAware
11:40AM 38.6240 -119.0430 94° East 544 626 35,000  Level FlightAware
11:40AM 38.6170 -118.8990 94° East 546 628 35,000  Level FlightAware
11:41AM 38.6090 -118.7380 94° East 546 628 35,000  Level FlightAware
11:42AM 38.6000 -118.5900 94° East 543 625 35,000  Level FlightAware
11:43AM 38.5920 -118.4470 94° East 542 624 35,000  Level FlightAware
11:43AM 38.5840 -118.3060 94° East 541 623 35,000  Level FlightAware
11:44AM 38.5770 -118.1790 94° East 540 621 35,000  Level FlightAware
11:45AM 38.5700 -118.0680 95° East 539 620 35,000  Level FlightAware
11:46AM 38.5620 -117.9220 94° East 538 619 35,000  Level FlightAware
11:47AM 38.5540 -117.7900 94° East 538 619 35,000  Level FlightAware
11:47AM 38.5490 -117.6960 94° East 538 619 35,000  Level FlightAware
11:48AM 38.5440 -117.6010 94° East 538 619 35,000  Level FlightAware
11:48AM 38.5390 -117.5040 94° East 538 619 35,000  Level FlightAware
11:49AM 38.5320 -117.3740 94° East 538 619 35,000  Level FlightAware
11:50AM 38.5260 -117.2770 94° East 538 619 35,000  Level FlightAware
11:50AM 38.5200 -117.1690 94° East 538 619 35,000  Level FlightAware
11:51AM 38.5130 -117.0370 94° East 538 619 35,000  Level FlightAware
11:52AM 38.5070 -116.9320 94° East 538 619 35,000  Level FlightAware
11:52AM 38.5020 -116.8350 94° East 538 619 35,000  Level FlightAware
11:53AM 38.4950 -116.7030 94° East 538 619 35,000  Level FlightAware
11:54AM 38.4890 -116.6060 94° East 538 619 35,000  Level FlightAware
11:55AM 38.4820 -116.4760 94° East 538 619 35,000 1,380 Level FlightAware
11:55AM 38.4144 -116.0647 94° East 540 621 37,000 1,200 Climbing Salt Lake Center
11:56AM 38.3969 -115.8747 97° East 541 623 37,000  Level Salt Lake Center
11:57AM 38.3800 -115.6836 96° East 541 623 37,000  Level Salt Lake Center
11:58AM 38.3608 -115.4933 97° East 541 623 37,000  Level Salt Lake Center
11:59AM 38.3419 -115.2914 97° East 547 629 37,000  Level Salt Lake Center
12:00PM 38.3222 -115.1003 97° East 546 628 37,000  Level Salt Lake Center
12:02PM 38.3031 -114.9078 97° East 549 632 37,000  Level Salt Lake Center
12:03PM 38.2831 -114.7136 97° East 553 636 37,000  Level Salt Lake Center
12:04PM 38.2589 -114.4817 97° East 553 636 37,000  Level Salt Lake Center
12:05PM 38.2400 -114.2889 97° East 551 634 37,000  Level Salt Lake Center
12:06PM 38.2339 -114.0947 92° East 549 632 37,000  Level Salt Lake Center
12:07PM 38.2225 -113.9003 94° East 551 634 37,000  Level Salt Lake Center
12:08PM 38.2097 -113.7067 95° East 550 633 37,000  Level Salt Lake Center
12:09PM 38.1978 -113.5119 94° East 550 633 37,000  Level Salt Lake Center
12:10PM 38.1853 -113.3164 95° East 553 636 37,000  Level Salt Lake Center
12:11PM 38.1686 -113.0794 95° East 558 642 37,000  Level Salt Lake Center
12:16PM 38.0900 -112.0150 95° East 561 646 37,000  Level FlightAware
12:17PM 38.0800 -111.8940 96° East 561 646 37,000  Level FlightAware
12:18PM 38.0680 -111.7330 95° East 561 646 37,000  Level FlightAware
12:18PM 38.0570 -111.6060 96° East 561 646 37,000  Level FlightAware
12:19PM 38.0460 -111.4650 96° East 561 646 37,000  Level FlightAware
12:20PM 38.0350 -111.3310 96° East 562 647 37,000  Level FlightAware
12:21PM 38.0190 -111.1410 96° East 563 648 37,000  Level FlightAware
12:21PM 38.0070 -111.0070 96° East 563 648 37,000  Level FlightAware
12:22PM 37.9960 -110.8730 96° East 562 647 37,000  Level FlightAware
12:23PM 37.9830 -110.7290 96° East 562 647 37,000  Level FlightAware
12:23PM 37.9720 -110.6040 96° East 563 648 37,000  Level FlightAware
12:24PM 37.9560 -110.4280 97° East 565 650 37,000  Level FlightAware
12:25PM 37.9430 -110.2960 97° East 566 651 37,000  Level FlightAware
12:26PM 37.9290 -110.1370 96° East 567 652 37,000  Level FlightAware
12:26PM 37.9160 -109.9990 97° East 567 652 37,000  Level FlightAware
12:27PM 37.9010 -109.8510 97° East 569 655 37,000  Level FlightAware
12:28PM 37.8890 -109.7210 97° East 569 655 37,000  Level FlightAware
12:28PM 37.8760 -109.5900 97° East 569 655 37,000  Level FlightAware
12:29PM 37.8620 -109.4510 97° East 569 655 37,000  Level FlightAware
12:30PM 37.8470 -109.3060 97° East 568 654 37,000  Level FlightAware
12:31PM 37.8390 -109.2270 97° East 569 655 37,000  Level FlightAware
12:31PM 37.8200 -109.0420 97° East 569 655 37,000  Level FlightAware
12:32PM 37.8070 -108.9100 97° East 569 655 37,000  Level FlightAware
12:33PM 37.7970 -108.7610 95° East 570 656 37,000  Level FlightAware
12:33PM 37.7890 -108.6220 94° East 570 656 37,000  Level FlightAware
12:34PM 37.7810 -108.4890 94° East 570 656 37,000  Level FlightAware
12:35PM 37.7720 -108.3390 94° East 569 655 37,000  Level FlightAware
12:36PM 37.7660 -108.2600 95° East 570 656 37,000  Level FlightAware
12:37PM 37.7580 -108.1370 95° East 569 655 37,000  Level FlightAware
12:38PM 37.7340 -107.7940 95° East 567 652 37,000  Level FlightAware
12:38PM 37.7220 -107.6400 96° East 565 650 37,000  Level FlightAware
12:39PM 37.7130 -107.5190 95° East 564 649 37,000  Level FlightAware
12:40PM 37.7040 -107.3910 95° East 564 649 37,000  Level FlightAware
12:40PM 37.6940 -107.2630 96° East 564 649 37,000  Level FlightAware
12:41PM 37.6830 -107.1230 96° East 564 649 37,000  Level FlightAware
12:42PM 37.6680 -106.9190 95° East 563 648 37,000  Level FlightAware
12:43PM 37.6590 -106.8150 96° East 562 647 37,000  Level FlightAware
12:43PM 37.6477 -106.6720 96° East 563 648 37,000  Level FlightAware ADS-B
12:44PM 37.6396 -106.5700 96° East 564 649 37,000  Level FlightAware ADS-B
12:45PM 37.6190 -106.3260 96° East 563 648 37,000  Level FlightAware
12:46PM 37.6084 -106.1990 96° East 563 648 37,000  Level FlightAware ADS-B
12:46PM 37.5998 -106.0980 96° East 561 646 37,000  Level FlightAware ADS-B
12:47PM 37.5907 -105.9900 96° East 561 646 37,000  Level FlightAware ADS-B
12:47PM 37.5821 -105.8930 96° East 561 646 37,000  Level FlightAware ADS-B
12:48PM 37.5735 -105.7960 96° East 560 644 37,000  Level FlightAware ADS-B
12:48PM 37.5644 -105.6920 96° East 560 644 37,000  Level FlightAware ADS-B
12:49PM 37.5549 -105.5860 96° East 560 644 37,000  Level FlightAware ADS-B
12:49PM 37.5455 -105.4850 97° East 560 644 37,000  Level FlightAware ADS-B
12:50PM 37.5349 -105.3690 97° East 561 646 37,000  Level FlightAware ADS-B
12:50PM 37.5257 -105.2680 97° East 561 646 37,000  Level FlightAware ADS-B
12:51PM 37.5163 -105.1680 97° East 559 643 37,000  Level FlightAware ADS-B
12:51PM 37.5070 -105.0710 97° East 558 642 37,000  Level FlightAware ADS-B
12:52PM 37.4965 -104.9590 97° East 557 641 37,000  Level FlightAware ADS-B
12:53PM 37.4851 -104.8430 97° East 556 640 37,000  Level FlightAware ADS-B
12:53PM 37.4726 -104.7150 97° East 556 640 37,000  Level FlightAware ADS-B
12:54PM 37.4513 -104.4980 97° East 554 638 37,000  Level FlightAware ADS-B
12:55PM 37.4388 -104.3740 97° East 554 638 37,000  Level FlightAware ADS-B
12:56PM 37.4273 -104.2620 97° East 553 636 37,000  Level FlightAware ADS-B
12:56PM 37.4158 -104.1470 97° East 552 635 37,000  Level FlightAware ADS-B
12:57PM 37.4071 -104.0640 97° East 553 636 37,000  Level FlightAware ADS-B
12:57PM 37.3970 -103.9690 98° East 553 636 37,000  Level FlightAware ADS-B
12:57PM 37.3922 -103.9210 97° East 553 636 37,000  Level FlightAware ADS-B
12:58PM 37.3817 -103.8230 98° East 553 636 37,000  Level FlightAware ADS-B
12:59PM 37.3706 -103.7170 97° East 553 636 37,000  Level FlightAware ADS-B
12:59PM 37.3582 -103.6030 98° East 554 638 37,000  Level FlightAware ADS-B
01:00PM 37.3427 -103.4600 98° East 554 638 37,000  Level FlightAware ADS-B
01:00PM 37.3312 -103.3550 98° East 553 636 37,000  Level FlightAware ADS-B
01:01PM 37.3204 -103.2560 98° East 554 638 37,000  Level FlightAware ADS-B
01:01PM 37.3155 -103.2120 98° East 37,000  Level FlightAware ADS-B
01:01PM 37.3101 -103.1640 98° East 554 638 37,000  Level FlightAware ADS-B
01:01PM 37.3092 -103.1540 96° East 554 638 37,000  Level FlightAware ADS-B
01:02PM 37.2992 -103.0650 98° East 554 638 37,000  Level FlightAware ADS-B
01:02PM 37.2985 -103.0590 98° East 554 638 37,000  Level FlightAware ADS-B
01:02PM 37.2877 -102.9630 98° East 556 640 37,000  Level FlightAware ADS-B
01:03PM 37.2766 -102.8670 98° East 557 641 37,000  Level FlightAware ADS-B
01:03PM 37.2757 -102.8580 97° East 557 641 37,000  Level FlightAware ADS-B
01:04PM 37.2653 -102.7690 98° East 556 640 37,000  Level FlightAware ADS-B
01:04PM 37.2645 -102.7590 96° East 556 640 37,000  Level FlightAware ADS-B
01:04PM 37.2537 -102.6670 98° East 556 640 37,000  Level FlightAware ADS-B
01:04PM 37.2530 -102.6600 97° East 556 640 37,000  Level FlightAware ADS-B
01:05PM 37.2424 -102.5710 98° East 556 640 37,000  Level FlightAware ADS-B
01:05PM 37.2294 -102.4590 98° East 558 642 37,000  Level FlightAware ADS-B
01:06PM 37.2170 -102.3540 98° East 557 641 37,000  Level FlightAware ADS-B
01:06PM 37.2055 -102.2580 99° East 556 640 37,000  Level FlightAware ADS-B
01:07PM 37.1936 -102.1600 99° East 555 639 37,000  Level FlightAware ADS-B
01:07PM 37.1819 -102.0610 98° East 554 638 37,000  Level FlightAware ADS-B
01:08PM 37.1702 -101.9670 99° East 554 638 37,000  Level FlightAware ADS-B
01:08PM 37.1584 -101.8680 98° East 553 636 37,000  Level FlightAware ADS-B
01:09PM 37.1466 -101.7730 99° East 552 635 37,000  Level FlightAware ADS-B
01:09PM 37.1347 -101.6790 99° East 552 635 37,000  Level FlightAware ADS-B
01:10PM 37.1225 -101.5810 99° East 554 638 37,000  Level FlightAware ADS-B
01:10PM 37.1102 -101.4830 99° East 553 636 37,000  Level FlightAware ADS-B
01:11PM 37.0979 -101.3880 99° East 554 638 37,000  Level FlightAware ADS-B
01:11PM 37.0858 -101.2900 99° East 554 638 37,000  Level FlightAware ADS-B
01:12PM 37.0734 -101.1950 99° East 553 636 37,000  Level FlightAware ADS-B
01:12PM 37.0612 -101.1000 99° East 553 636 37,000  Level FlightAware ADS-B
01:13PM 37.0487 -101.0060 99° East 553 636 37,000  Level FlightAware ADS-B
01:13PM 37.0411 -100.9460 99° East 552 635 37,000  Level FlightAware ADS-B
01:13PM 37.0367 -100.8920 96° East 552 635 37,000  Level FlightAware ADS-B
01:14PM 37.0316 -100.7930 94° East 551 634 37,000  Level FlightAware ADS-B
01:14PM 37.0267 -100.6950 94° East 550 633 37,000  Level FlightAware ADS-B
01:15PM 37.0213 -100.5970 94° East 550 633 37,000  Level FlightAware ADS-B
01:15PM 37.0155 -100.5010 94° East 551 634 37,000  Level FlightAware ADS-B
01:16PM 37.0092 -100.4070 95° East 551 634 37,000  Level FlightAware ADS-B
01:16PM 37.0027 -100.3080 95° East 551 634 37,000  Level FlightAware ADS-B
01:17PM 36.9916 -100.1530 95° East 551 634 37,000  Level FlightAware ADS-B
01:18PM 36.9832 -100.0350 95° East 552 635 37,000  Level FlightAware ADS-B
01:20PM 36.9543 -99.6379 95° East 553 636 37,000  Level FlightAware ADS-B
01:21PM 36.9409 -99.4569 95° East 553 636 37,000  Level FlightAware ADS-B
01:24PM 36.8790 -98.9550 99° East 545 627 37,000  Level FlightAware
01:24PM 36.8610 -98.8480 102° East 545 627 37,000  Level FlightAware
01:25PM 36.8350 -98.6900 102° East 548 631 37,000  Level FlightAware
01:26PM 36.8120 -98.5560 102° East 552 635 37,000  Level FlightAware
01:27PM 36.7870 -98.4030 101° East 554 638 37,000  Level FlightAware
01:27PM 36.7660 -98.2780 102° East 554 638 37,000  Level FlightAware
01:28PM 36.7450 -98.1490 101° East 554 638 37,000  Level FlightAware
01:29PM 36.7250 -98.0310 102° East 552 635 37,000  Level FlightAware
01:29PM 36.6990 -97.8850 102° East 552 635 37,000  Level FlightAware
01:30PM 36.6770 -97.7580 102° East 547 629 37,000  Level FlightAware
01:31PM 36.6570 -97.6420 102° East 540 621 37,000  Level FlightAware
01:31PM 36.6330 -97.5040 102° East 531 611 37,000  Level FlightAware
01:32PM 36.6100 -97.3730 102° East 530 610 37,000  Level FlightAware
01:33PM 36.5890 -97.2540 102° East 529 609 37,000  Level FlightAware
01:34PM 36.5630 -97.1090 103° East 529 609 37,000  Level FlightAware
01:35PM 36.5160 -96.8460 102° East 530 610 37,000  Level FlightAware
01:36PM 36.4820 -96.6760 104° East 537 618 37,000  Level FlightAware
01:37PM 36.4650 -96.5860 103° East 537 618 37,000  Level FlightAware
01:37PM 36.4360 -96.4310 103° East 535 616 37,000  Level FlightAware
01:38PM 36.4040 -96.2640 103° East 532 612 37,000  Level FlightAware
01:39PM 36.3800 -96.1370 103° East 531 611 37,000  Level FlightAware
01:40PM 36.3610 -96.0360 103° East 531 611 37,000  Level FlightAware
01:40PM 36.3440 -95.9450 103° East 531 611 37,000  Level FlightAware
01:41PM 36.3130 -95.7960 104° East 533 613 37,000  Level FlightAware
01:42PM 36.2980 -95.7150 103° East 533 613 37,000  Level FlightAware
01:43PM 36.2570 -95.5100 104° East 536 617 37,000  Level FlightAware
01:43PM 36.2330 -95.3910 104° East 535 616 37,000  Level FlightAware
01:44PM 36.2080 -95.2630 104° East 536 617 37,000  Level FlightAware
01:45PM 36.1810 -95.1320 104° East 536 617 37,000  Level FlightAware
01:45PM 36.1550 -95.0010 104° East 536 617 37,000  Level FlightAware
01:46PM 36.1310 -94.8850 104° East 538 619 37,000  Level FlightAware
01:47PM 36.1030 -94.7480 104° East 538 619 37,000  Level FlightAware
01:48PM 36.0780 -94.6230 104° East 538 619 37,000  Level FlightAware
01:48PM 36.0550 -94.5160 105° East 537 618 37,000  Level FlightAware
01:49PM 36.0320 -94.4030 104° East 538 619 37,000  Level FlightAware
01:50PM 36.0030 -94.2660 105° East 540 621 37,000  Level FlightAware
01:50PM 35.9730 -94.1230 104° East 540 621 37,000  Level FlightAware
01:51PM 35.9460 -93.9980 105° East 541 623 37,000  Level FlightAware
01:52PM 35.9250 -93.8960 104° East 541 623 37,000  Level FlightAware
01:52PM 35.8940 -93.7530 105° East 541 623 37,000  Level FlightAware
01:53PM 35.8750 -93.6640 105° East 542 624 37,000  Level FlightAware
01:54PM 35.8470 -93.5380 105° East 543 625 37,000  Level FlightAware
01:54PM 35.8240 -93.4300 105° East 544 626 37,000  Level FlightAware
01:55PM 35.7850 -93.2510 105° East 547 629 37,000  Level FlightAware
01:56PM 35.7460 -93.0790 106° East 551 634 37,000  Level FlightAware
01:57PM 35.7240 -92.9760 105° East 552 635 37,000  Level FlightAware
01:57PM 35.6930 -92.8370 105° East 552 635 37,000  Level FlightAware
01:58PM 35.6640 -92.7100 106° East 551 634 37,000  Level FlightAware
01:59PM 35.6360 -92.5860 105° East 551 634 37,000  Level FlightAware
02:00PM 35.5930 -92.3890 105° East 552 635 37,000  Level FlightAware
02:01PM 35.5720 -92.2910 105° East 552 635 37,000  Level FlightAware
02:01PM 35.5510 -92.1960 105° East 552 635 37,000  Level FlightAware
02:02PM 35.5240 -92.0720 105° East 552 635 37,000  Level FlightAware
02:03PM 35.5040 -91.9800 105° East 552 635 37,000  Level FlightAware
02:04PM 35.4770 -91.8560 105° East 552 635 37,000  Level FlightAware
02:04PM 35.4570 -91.7630 105° East 552 635 37,000  Level FlightAware
02:05PM 35.4360 -91.6710 106° East 552 635 37,000  Level FlightAware
02:05PM 35.3760 -91.4580 109° East 523 602 37,000  Level FlightAware
02:06PM 35.3550 -91.3700 106° East 523 602 37,000  Level FlightAware
02:07PM 35.3340 -91.2810 106° East 523 602 37,000  Level FlightAware
02:08PM 35.3060 -91.1620 106° East 523 602 37,000  Level FlightAware
02:08PM 35.2920 -91.0990 105° East 523 602 37,000  Level FlightAware
02:09PM 35.2650 -90.9850 106° East 523 602 37,000  Level FlightAware
02:09PM 35.2440 -90.8960 106° East 523 602 37,000  Level FlightAware
02:10PM 35.2220 -90.8010 106° East 523 602 37,000  Level FlightAware
02:11PM 35.1980 -90.7000 106° East 523 602 37,000  Level FlightAware
02:11PM 35.1780 -90.6150 106° East 523 602 37,000  Level FlightAware
02:12PM 35.1580 -90.5300 106° East 523 602 37,000  Level FlightAware
02:13PM 35.1310 -90.4140 106° East 523 602 37,000  Level FlightAware
02:13PM 35.1110 -90.3270 106° East 523 602 37,000  Level FlightAware
02:14PM 35.0830 -90.2110 106° East 523 602 37,000  Level FlightAware
02:15PM 35.0560 -90.0930 106° East 523 602 37,000  Level FlightAware
02:16PM 34.9825 -89.6881 106° East 525 604 37,000  Level Memphis Center
02:17PM 34.9503 -89.5133 103° East 531 611 37,000  Level Memphis Center
02:18PM 34.9239 -89.3592 102° East 525 604 37,000  Level Memphis Center
02:19PM 34.8975 -89.1872 101° East 520 598 37,000  Level Memphis Center
02:20PM 34.8708 -89.0181 101° East 515 593 37,000  Level Memphis Center
02:21PM 34.8458 -88.8514 100° East 515 593 37,000  Level Memphis Center
02:22PM 34.8186 -88.6825 101° East 506 582 37,000 -480 Level Memphis Center
02:23PM 34.7933 -88.5111 100° East 506 582 36,100 -900 Descending Memphis Center
02:24PM 34.7678 -88.3422 100° East 499 574 35,300 -660 Descending Memphis Center
02:25PM 34.7353 -88.1483 101° East 509 586 34,800 -720 Descending Memphis Center
02:26PM 34.7069 -87.9800 102° East 522 601 33,900 -900 Descending Memphis Center
02:27PM 34.6808 -87.8139 101° East 510 587 33,000 -480 Descending Memphis Center
02:28PM 34.6544 -87.6481 101° East 502 578 33,000 -180 Level Memphis Center
02:33PM 34.4900 -86.7630 101° East 508 585 32,000 -180 Descending FlightAware
02:34PM 34.4740 -86.6680 102° East 508 585 32,000  Level FlightAware
02:34PM 34.4580 -86.5780 102° East 508 585 32,000 -1,080 Level FlightAware
02:35PM 34.4410 -86.5052 106° East 500 575 31,100 -1,380 Descending FlightAware ADS-B
02:35PM 34.4203 -86.3986 103° East 502 578 30,800 -600 Descending FlightAware ADS-B
02:36PM 34.4030 -86.3116 104° East 498 573 30,400 -840 Descending FlightAware ADS-B
02:36PM 34.3846 -86.2188 103° East 477 549 29,900 -1,200 Descending FlightAware ADS-B
02:37PM 34.3640 -86.1138 103° East 453 521 28,900  Descending FlightAware ADS-B
02:38PM 34.3460 -86.0140 102° East 470 541 29,900 -1,980 Climbing FlightAware
02:38PM 34.3283 -85.9344 105° East 448 516 26,500 -5,220 Descending FlightAware ADS-B
02:39PM 34.3139 -85.8628 104° East 435 501 25,400 -1,920 Descending FlightAware ADS-B
02:39PM 34.2995 -85.7904 104° East 427 491 24,600 -1,380 Descending FlightAware ADS-B
02:40PM 34.2855 -85.7208 104° East 428 493 24,000 -1,560 Descending FlightAware ADS-B
02:40PM 34.2708 -85.6492 104° East 424 488 23,000 -1,980 Descending FlightAware ADS-B
02:41PM 34.2569 -85.5807 104° East 417 480 22,000 -2,100 Descending FlightAware ADS-B
02:41PM 34.2386 -85.5126 108° East 412 474 20,900 -1,980 Descending FlightAware ADS-B
02:42PM 34.2126 -85.4278 110° East 402 463 19,700 -1,860 Descending FlightAware ADS-B
02:43PM 34.1921 -85.3612 110° East 396 456 18,700 3,960 Descending FlightAware ADS-B
02:43PM 34.2160 -85.3550 12° North 428 493 23,800 4,320 Climbing FlightAware
02:44PM 34.2010 -85.2780 103° East 428 493 23,800 -5,760 Level FlightAware
02:45PM 34.1170 -85.1170 122° Southeast 375 432 14,900 -5,160 Descending FlightAware
02:46PM 34.0840 -85.0110 111° Southeast 361 415 14,100 -720 Descending FlightAware
02:46PM 34.0540 -84.9820 141° Southeast 328 377 14,000 -120 Descending FlightAware
02:47PM 34.0190 -84.9520 145° Southeast 323 372 14,000  Level FlightAware
02:47PM 33.9580 -84.9010 145° Southeast 323 372 14,000  Level FlightAware
02:48PM 33.9010 -84.8530 145° Southeast 324 373 14,000  Level FlightAware
02:49PM 33.8480 -84.8080 145° Southeast 322 371 14,000 -120 Level FlightAware
02:49PM 33.7990 -84.7660 145° Southeast 318 366 13,900 -720 Descending FlightAware
02:50PM 33.7750 -84.7210 123° Southeast 330 380 13,200 -1,200 Descending FlightAware
02:51PM 33.7550 -84.6460 108° East 344 396 12,500 -960 Descending FlightAware
02:51PM 33.7330 -84.5650 108° East 346 398 11,900 -840 Descending FlightAware
02:52PM 33.7300 -84.4960 93° East 341 392 11,400 -1,200 Descending FlightAware
02:53PM 33.7310 -84.4100 89° East 335 386 10,300 -1,320 Descending FlightAware
02:53PM 33.7310 -84.3590 90° East 326 375 9,800 -1,500 Descending FlightAware
02:54PM 33.7310 -84.3050 90° East 324 373 8,900 -1,860 Descending FlightAware
02:54PM 33.7310 -84.2580 90° East 320 368 8,100 -1,800 Descending FlightAware
02:55PM 33.7310 -84.1800 90° East 314 361 6,800 -1,500 Descending FlightAware
02:55PM 33.7310 -84.1600 90° East 312 359 6,500 -1,260 Descending FlightAware
02:56PM 33.7320 -84.1080 89° East 309 356 5,900 -1,260 Descending FlightAware
02:56PM 33.7330 -84.0710 88° East 301 346 5,600 -840 Descending FlightAware
02:57PM 33.7340 -84.0190 89° East 277 319 5,200 -660 Descending FlightAware
02:57PM 33.7250 -83.9840 107° East 242 278 5,000 -180 Descending FlightAware
02:57PM 33.7110 -83.9720 145° Southeast 201 231 5,100  Climbing FlightAware
02:58PM 33.6860 -83.9670 171° South 199 229 5,000 -120 Descending FlightAware
02:58PM 33.6560 -83.9760 194° South 175 201 5,000 120 Level FlightAware
02:59PM 33.6530 -83.9850 248° West 171 197 5,100  Climbing FlightAware
02:59PM 33.6490 -84.0140 261° West 167 192 5,000 -180 Descending FlightAware
02:59PM 33.6490 -84.0260 270° West 168 193 5,000  Level FlightAware
03:00PM 33.6490 -84.0670 270° West 170 196 5,000  Level FlightAware
03:01PM 33.6490 -84.0950 270° West 169 194 5,000  Level FlightAware
03:01PM 33.6490 -84.1200 270° West 174 200 5,000  Level FlightAware
03:01PM 33.6490 -84.1470 270° West 172 198 5,000 -480 Level FlightAware
03:02PM 33.6490 -84.1870 270° West 186 214 4,500 -780 Descending FlightAware
03:02PM 33.6490 -84.2110 270° West 180 207 4,200 -960 Descending FlightAware
03:03PM 33.6490 -84.2330 270° West 180 207 3,800 -1,020 Descending FlightAware
03:03PM 33.6490 -84.2600 270° West 180 207 3,400 -900 Descending FlightAware
03:04PM 33.6490 -84.3030 270° West 178 205 2,800 -900 Descending FlightAware
03:04PM 33.6500 -84.3180 275° West 164 189 2,500 -960 Descending FlightAware
03:05PM 33.6500 -84.3480 270° West 150 173 2,000 -840 Descending FlightAware
03:06PM 33.6490 -84.3820 268° West 143 165 1,500 -720 Descending FlightAware
03:06PM 33.6500 -84.4020 273° West 142 163 1,200 -720 Descending FlightAware
03:07PM 33.6500 -84.4300 270° West 27 31 -1,320 Descending FlightAware